createdAt,value
2022-11-26T00:01:44.415Z,6.50
2022-11-26T00:04:15.528Z,9.88
2022-11-26T00:06:46.344Z,13.00
2022-11-26T00:09:26.928Z,7.03
2022-11-26T00:11:56.300Z,3.50
2022-11-26T00:14:25.465Z,9.65
2022-11-26T00:17:04.907Z,6.55
2022-11-26T00:19:41.608Z,6.00
2022-11-26T00:22:28.640Z,6.32
2022-11-26T00:24:58.536Z,5.88
2022-11-26T00:27:41.048Z,8.27
2022-11-26T00:30:17.436Z,10.60
2022-11-26T00:32:47.032Z,15.05
2022-11-26T00:35:29.223Z,7.20
2022-11-26T00:38:00.440Z,6.13
2022-11-26T00:40:37.845Z,6.70
2022-11-26T00:43:11.460Z,4.40
2022-11-26T00:45:40.989Z,8.75
2022-11-26T00:48:10.156Z,8.73
2022-11-26T00:50:44.233Z,8.48
2022-11-26T00:53:15.941Z,8.95
2022-11-26T00:55:48.735Z,4.60
2022-11-26T00:58:24.775Z,9.35
2022-11-26T01:00:54.950Z,6.25
2022-11-26T01:03:24.568Z,4.63
2022-11-26T01:06:04.162Z,3.63
2022-11-26T01:08:36.595Z,9.38
2022-11-26T01:13:52.711Z,6.97
2022-11-26T01:16:24.650Z,4.25
2022-11-26T01:18:56.776Z,4.35
2022-11-26T01:23:59.207Z,3.42
2022-11-26T01:26:34.250Z,3.60
2022-11-26T01:29:03.499Z,3.25
2022-11-26T01:31:32.838Z,4.55
2022-11-26T01:34:03.647Z,5.78
2022-11-26T01:36:36.832Z,7.05
2022-11-26T01:39:08.355Z,5.43
2022-11-26T01:41:46.593Z,6.07
2022-11-26T01:44:25.771Z,8.20
2022-11-26T01:46:56.350Z,8.65
2022-11-26T01:49:28.138Z,6.10
2022-11-26T01:54:39.728Z,6.63
2022-11-26T01:57:17.940Z,7.95
2022-11-26T01:59:51.585Z,4.75
2022-11-26T02:02:23.181Z,6.25
2022-11-26T02:05:03.672Z,3.00
2022-11-26T02:07:35.661Z,7.55
2022-11-26T02:12:34.776Z,6.60
2022-11-26T02:15:04.558Z,6.78
2022-11-26T02:17:40.776Z,8.82
2022-11-26T02:20:38.078Z,9.25
2022-11-26T02:23:39.723Z,7.60
2022-11-26T02:29:08.540Z,7.18
2022-11-26T02:31:43.875Z,13.82
2022-11-26T02:34:25.031Z,11.43
2022-11-26T02:36:59.101Z,10.23
2022-11-26T02:39:39.287Z,10.52
2022-11-26T02:42:25.418Z,8.93
2022-11-26T02:44:56.999Z,7.03
2022-11-26T02:47:35.415Z,10.02
2022-11-26T02:50:08.970Z,10.38
2022-11-26T02:52:40.691Z,9.13
2022-11-26T02:55:12.746Z,9.68
2022-11-26T02:57:47.042Z,8.52
2022-11-26T03:00:20.242Z,9.70
2022-11-26T03:02:56.673Z,8.20
2022-11-26T03:05:38.830Z,5.00
2022-11-26T03:08:09.862Z,9.00
2022-11-26T03:10:39.186Z,5.90
2022-11-26T03:13:08.364Z,7.60
2022-11-26T03:15:37.715Z,7.20
2022-11-26T03:18:08.853Z,7.07
2022-11-26T03:20:38.254Z,5.35
2022-11-26T03:23:07.605Z,6.30
2022-11-26T03:25:38.455Z,9.17
2022-11-26T03:28:07.953Z,7.28
2022-11-26T03:30:37.502Z,8.18
2022-11-26T03:33:08.734Z,9.13
2022-11-26T03:35:37.948Z,7.35
2022-11-26T03:38:07.118Z,5.10
2022-11-26T03:40:36.596Z,5.45
2022-11-26T03:43:05.880Z,4.78
2022-11-26T03:45:35.262Z,7.50
2022-11-26T03:48:09.487Z,6.70
2022-11-26T03:50:40.714Z,4.85
2022-11-26T03:55:44.986Z,5.10
2022-11-26T03:58:14.254Z,3.88
2022-11-26T04:00:43.845Z,6.32
2022-11-26T04:03:12.899Z,7.93
2022-11-26T04:05:53.407Z,6.25
2022-11-26T04:08:22.557Z,8.40
2022-11-26T04:10:51.662Z,9.77
2022-11-26T04:13:20.949Z,6.90
2022-11-26T04:15:50.517Z,9.57
2022-11-26T04:18:19.946Z,9.30
2022-11-26T04:20:53.260Z,9.63
2022-11-26T04:23:22.921Z,9.88
2022-11-26T04:25:57.279Z,9.98
2022-11-26T04:28:26.525Z,8.23
2022-11-26T04:30:55.695Z,7.13
2022-11-26T04:33:26.495Z,11.52
2022-11-26T04:35:58.097Z,10.10
2022-11-26T04:38:27.305Z,9.98
2022-11-26T04:40:56.469Z,7.30
2022-11-26T04:43:25.737Z,10.55
2022-11-26T04:46:00.842Z,7.95
2022-11-26T04:48:30.140Z,10.73
2022-11-26T04:51:01.274Z,8.80
2022-11-26T04:53:30.649Z,9.25
2022-11-26T04:55:59.892Z,11.88
2022-11-26T04:58:29.444Z,7.93
2022-11-26T05:00:58.652Z,9.07
2022-11-26T05:03:28.196Z,10.32
2022-11-26T05:06:04.526Z,9.75
2022-11-26T05:08:34.028Z,6.80
2022-11-26T05:11:03.208Z,8.35
2022-11-26T05:13:37.832Z,7.18
2022-11-26T05:16:07.832Z,4.60
2022-11-26T05:18:37.144Z,7.30
2022-11-26T05:21:09.804Z,6.07
2022-11-26T05:23:48.394Z,6.85
2022-11-26T05:26:22.720Z,7.10
2022-11-26T05:28:51.927Z,8.13
2022-11-26T05:31:21.090Z,6.65
2022-11-26T05:33:50.503Z,4.93
2022-11-26T05:36:26.816Z,5.43
2022-11-26T05:41:31.791Z,6.82
2022-11-26T05:44:01.086Z,8.93
2022-11-26T05:46:36.012Z,7.68
2022-11-26T05:49:05.206Z,7.03
2022-11-26T05:51:39.355Z,7.28
2022-11-26T05:54:08.645Z,7.50
2022-11-26T05:56:37.875Z,8.15
2022-11-26T05:59:12.655Z,5.10
2022-11-26T06:01:41.987Z,6.30
2022-11-26T06:04:11.145Z,6.80
2022-11-26T06:06:42.291Z,5.68
2022-11-26T06:09:16.562Z,4.47
2022-11-26T06:11:45.851Z,6.15
2022-11-26T06:14:16.016Z,3.92
2022-11-26T06:16:45.527Z,4.20
2022-11-26T06:19:17.684Z,5.82
2022-11-26T06:21:48.940Z,9.10
2022-11-26T06:24:18.231Z,5.25
2022-11-26T06:26:47.314Z,4.80
2022-11-26T06:29:26.433Z,5.82
2022-11-26T06:31:57.458Z,7.57
2022-11-26T06:34:26.910Z,10.43
2022-11-26T06:36:58.127Z,5.45
2022-11-26T06:39:27.363Z,4.85
2022-11-26T06:42:01.637Z,6.47
2022-11-26T06:44:30.944Z,7.50
2022-11-26T06:46:59.979Z,7.35
2022-11-26T06:49:29.134Z,8.30
2022-11-26T06:52:05.987Z,7.10
2022-11-26T06:54:35.596Z,8.52
2022-11-26T06:57:06.935Z,9.20
2022-11-26T06:59:38.037Z,8.13
2022-11-26T07:02:13.428Z,6.97
2022-11-26T07:04:47.919Z,9.93
2022-11-26T07:07:19.352Z,7.85
2022-11-26T07:09:48.909Z,10.10
2022-11-26T07:12:18.094Z,9.95
2022-11-26T07:14:47.342Z,5.10
2022-11-26T07:17:16.417Z,7.72
2022-11-26T07:19:45.581Z,8.20
2022-11-26T07:22:14.978Z,12.95
2022-11-26T07:24:56.235Z,11.40
2022-11-26T07:27:25.590Z,9.90
2022-11-26T07:29:54.638Z,10.82
2022-11-26T07:32:31.279Z,31.40
2022-11-26T07:35:05.180Z,13.48
2022-11-26T07:37:34.861Z,12.52
2022-11-26T07:40:07.166Z,13.45
2022-11-26T07:42:42.611Z,17.42
2022-11-26T07:45:12.795Z,10.25
2022-11-26T07:47:41.871Z,13.65
2022-11-26T07:50:11.623Z,11.90
2022-11-26T07:52:40.696Z,14.85
2022-11-26T07:55:12.887Z,12.75
2022-11-26T07:57:42.095Z,11.02
2022-11-26T08:00:12.563Z,11.80
2022-11-26T08:02:42.030Z,14.10
2022-11-26T08:05:11.460Z,11.43
2022-11-26T08:07:40.753Z,12.15
2022-11-26T08:10:13.413Z,14.80
2022-11-26T08:12:42.580Z,15.10
2022-11-26T08:15:12.801Z,12.35
2022-11-26T08:17:41.967Z,9.48
2022-11-26T08:20:12.253Z,12.05
2022-11-26T08:22:46.495Z,8.60
2022-11-26T08:25:17.607Z,7.70
2022-11-26T08:27:46.979Z,11.10
2022-11-26T08:30:16.543Z,13.10
2022-11-26T08:32:45.713Z,12.85
2022-11-26T08:35:14.881Z,13.27
2022-11-26T08:37:44.226Z,11.40
2022-11-26T08:40:14.575Z,13.75
2022-11-26T08:42:46.724Z,11.18
2022-11-26T08:45:16.100Z,13.43
2022-11-26T08:47:45.179Z,7.22
2022-11-26T08:53:02.159Z,12.20
2022-11-26T08:55:58.764Z,12.73
2022-11-26T08:58:23.153Z,9.13
2022-11-26T09:00:52.319Z,9.70
2022-11-26T09:03:26.779Z,13.07
2022-11-26T09:05:56.006Z,7.93
2022-11-26T09:08:32.413Z,12.60
2022-11-26T09:11:06.753Z,12.25
2022-11-26T09:13:37.910Z,13.10
2022-11-26T09:16:07.832Z,11.93
2022-11-26T09:18:36.950Z,12.82
2022-11-26T09:21:11.096Z,12.98
2022-11-26T09:23:40.291Z,11.05
2022-11-26T09:26:09.572Z,15.43
2022-11-26T09:28:41.217Z,16.10
2022-11-26T09:31:10.484Z,18.40
2022-11-26T09:33:39.606Z,9.85
2022-11-26T09:36:11.466Z,15.27
2022-11-26T09:38:41.410Z,13.43
2022-11-26T09:41:35.325Z,14.32
2022-11-26T09:44:18.439Z,14.27
2022-11-26T09:47:11.130Z,20.00
2022-11-26T09:49:57.143Z,13.80
2022-11-26T09:52:35.412Z,11.55
2022-11-26T09:55:18.871Z,13.02
2022-11-26T09:57:54.999Z,14.88
2022-11-26T10:00:29.539Z,7.43
2022-11-26T10:03:05.096Z,11.27
2022-11-26T10:05:46.219Z,12.45
2022-11-26T10:08:29.960Z,11.50
2022-11-26T10:11:12.771Z,14.85
2022-11-26T10:14:06.457Z,13.18
2022-11-26T10:16:45.448Z,11.77
2022-11-26T10:19:21.511Z,10.10
2022-11-26T10:21:59.609Z,15.75
2022-11-26T10:24:34.279Z,14.32
2022-11-26T10:27:11.350Z,11.25
2022-11-26T10:29:43.983Z,15.82
2022-11-26T10:32:26.285Z,16.23
2022-11-26T10:34:57.583Z,13.43
2022-11-26T10:37:29.402Z,9.63
2022-11-26T10:40:23.861Z,12.93
2022-11-26T10:43:15.754Z,13.45
2022-11-26T10:45:51.966Z,16.52
2022-11-26T10:48:26.625Z,12.52
2022-11-26T10:51:03.694Z,16.73
2022-11-26T10:53:54.037Z,13.25
2022-11-26T10:56:26.148Z,13.80
2022-11-26T10:59:01.125Z,15.95
2022-11-26T11:01:38.417Z,17.90
2022-11-26T11:04:28.382Z,21.33
2022-11-26T11:06:57.979Z,18.98
2022-11-26T11:09:31.575Z,16.73
2022-11-26T11:12:18.663Z,18.27
2022-11-26T11:14:49.027Z,13.57
2022-11-26T11:17:32.645Z,16.30
2022-11-26T11:20:34.236Z,12.93
2022-11-26T11:23:20.931Z,15.13
2022-11-26T11:26:00.639Z,11.57
2022-11-26T11:28:32.564Z,20.58
2022-11-26T11:33:33.389Z,13.75
2022-11-26T11:36:07.842Z,12.15
2022-11-26T11:38:49.255Z,20.08
2022-11-26T11:41:29.187Z,14.05
2022-11-26T11:44:08.038Z,14.82
2022-11-26T11:46:56.131Z,12.90
2022-11-26T11:49:37.539Z,17.80
2022-11-26T11:52:19.701Z,14.45
2022-11-26T11:55:03.093Z,17.60
2022-11-26T11:57:55.463Z,17.50
2022-11-26T12:00:38.619Z,18.25
2022-11-26T12:03:28.175Z,16.30
2022-11-26T12:06:14.974Z,18.50
2022-11-26T12:09:00.479Z,15.95
2022-11-26T12:11:40.218Z,16.92
2022-11-26T12:14:15.448Z,11.35
2022-11-26T12:16:54.071Z,18.75
2022-11-26T12:19:31.408Z,21.23
2022-11-26T12:22:08.751Z,17.35
2022-11-26T12:24:48.516Z,11.75
2022-11-26T12:27:29.782Z,15.07
2022-11-26T12:30:03.716Z,19.75
2022-11-26T12:32:45.451Z,20.67
2022-11-26T12:35:25.052Z,16.07
2022-11-26T12:38:00.403Z,14.70
2022-11-26T12:40:37.546Z,17.55
2022-11-26T12:43:13.591Z,20.25
2022-11-26T12:45:55.444Z,17.15
2022-11-26T12:55:24.948Z,14.30
2022-11-26T12:57:57.724Z,19.90
2022-11-26T13:00:36.055Z,21.02
2022-11-26T13:03:07.862Z,16.98
2022-11-26T13:05:51.135Z,18.48
2022-11-26T13:08:41.553Z,18.52
2022-11-26T13:11:31.736Z,18.40
2022-11-26T13:14:21.123Z,18.70
2022-11-26T13:16:56.936Z,15.80
2022-11-26T13:19:34.193Z,21.13
2022-11-26T13:22:19.463Z,12.30
2022-11-26T13:25:15.419Z,12.50
2022-11-26T13:28:01.805Z,18.50
2022-11-26T13:30:42.179Z,19.23
2022-11-26T13:33:55.678Z,19.85
2022-11-26T13:37:08.566Z,17.92
2022-11-26T13:40:16.684Z,21.88
2022-11-26T13:43:05.892Z,21.88
2022-11-26T13:46:07.440Z,23.17
2022-11-26T13:48:44.550Z,21.92
2022-11-26T13:51:21.188Z,26.55
2022-11-26T13:53:57.014Z,22.48
2022-11-26T13:56:31.763Z,25.40
2022-11-26T13:59:06.599Z,27.52
2022-11-26T14:01:39.847Z,19.80
2022-11-26T14:04:12.172Z,18.60
2022-11-26T14:07:17.357Z,32.92
2022-11-26T14:09:52.324Z,22.02
2022-11-26T14:12:22.673Z,23.73
2022-11-26T14:14:53.779Z,21.92
2022-11-26T14:17:35.442Z,16.55
2022-11-26T14:20:13.965Z,19.30
2022-11-26T14:22:43.188Z,26.30
2022-11-26T14:25:15.225Z,20.67
2022-11-26T14:27:54.683Z,21.67
2022-11-26T14:30:29.089Z,19.05
2022-11-26T14:33:07.958Z,24.00
2022-11-26T14:35:39.450Z,18.77
2022-11-26T14:38:23.557Z,22.85
2022-11-26T14:40:59.288Z,25.70
2022-11-26T14:43:29.268Z,22.88
2022-11-26T14:46:06.824Z,26.63
2022-11-26T14:48:42.712Z,29.08
2022-11-26T14:51:12.195Z,19.08
2022-11-26T14:53:48.754Z,23.73
2022-11-26T14:56:19.249Z,20.15
2022-11-26T14:58:52.407Z,22.00
2022-11-26T15:01:25.430Z,21.50
2022-11-26T15:03:59.791Z,23.83
2022-11-26T15:06:37.597Z,22.15
2022-11-26T15:09:16.273Z,25.95
2022-11-26T15:11:49.224Z,20.50
2022-11-26T15:14:26.507Z,35.50
2022-11-26T15:17:02.174Z,28.75
2022-11-26T15:19:36.660Z,21.73
2022-11-26T15:22:08.979Z,24.27
2022-11-26T15:24:39.856Z,24.33
2022-11-26T15:27:28.850Z,18.03
2022-11-26T15:30:03.515Z,23.42
2022-11-26T15:32:36.062Z,20.35
2022-11-26T15:37:57.271Z,27.20
2022-11-26T15:40:31.046Z,21.27
2022-11-26T15:43:02.742Z,25.20
2022-11-26T15:45:53.688Z,23.65
2022-11-26T15:48:50.344Z,31.20
2022-11-26T15:51:30.678Z,30.40
2022-11-26T15:54:02.417Z,31.38
2022-11-26T15:56:35.428Z,27.65
2022-11-26T15:59:17.201Z,25.40
2022-11-26T16:01:47.884Z,18.65
2022-11-26T16:04:40.070Z,26.55
2022-11-26T16:07:14.797Z,27.42
2022-11-26T16:09:44.643Z,17.95
2022-11-26T16:12:30.765Z,25.65
2022-11-26T16:15:20.388Z,29.75
2022-11-26T16:17:50.810Z,21.50
2022-11-26T16:20:24.578Z,28.25
2022-11-26T16:23:02.581Z,20.33
2022-11-26T16:25:34.017Z,24.42
2022-11-26T16:28:08.740Z,28.90
2022-11-26T16:30:38.180Z,19.70
2022-11-26T16:33:13.125Z,31.38
2022-11-26T16:35:46.175Z,30.63
2022-11-26T16:38:22.619Z,22.10
2022-11-26T16:40:52.330Z,32.40
2022-11-26T16:43:21.431Z,30.50
2022-11-26T16:45:53.263Z,28.80
2022-11-26T16:48:26.172Z,27.52
2022-11-26T16:51:02.370Z,30.65
2022-11-26T16:53:31.619Z,37.83
2022-11-26T16:56:00.767Z,28.83
2022-11-26T16:58:37.649Z,33.45
2022-11-26T17:01:07.418Z,33.33
2022-11-26T17:03:36.630Z,18.15
2022-11-26T17:06:17.471Z,29.75
2022-11-26T17:08:49.731Z,32.95
2022-11-26T17:11:20.019Z,31.27
2022-11-26T17:13:49.209Z,32.42
2022-11-26T17:16:21.408Z,31.55
2022-11-26T17:18:51.489Z,23.40
2022-11-26T17:21:27.659Z,22.55
2022-11-26T17:23:56.765Z,29.85
2022-11-26T17:26:26.653Z,24.85
2022-11-26T17:28:55.950Z,22.48
2022-11-26T17:31:26.405Z,31.35
2022-11-26T17:33:56.870Z,30.67
2022-11-26T17:36:35.263Z,31.80
2022-11-26T17:39:11.189Z,23.10
2022-11-26T17:41:41.346Z,26.02
2022-11-26T17:44:12.051Z,31.75
2022-11-26T17:47:09.195Z,25.17
2022-11-26T17:49:32.801Z,19.02
2022-11-26T17:52:08.936Z,30.55
2022-11-26T17:54:38.222Z,27.35
2022-11-26T17:57:07.578Z,21.25
2022-11-26T17:59:37.188Z,26.35
2022-11-26T18:02:06.594Z,23.98
2022-11-26T18:04:36.845Z,24.27
2022-11-26T18:07:20.690Z,28.80
2022-11-26T18:09:50.065Z,28.35
2022-11-26T18:12:24.969Z,28.88
2022-11-26T18:15:00.178Z,31.02
2022-11-26T18:17:29.429Z,22.38
2022-11-26T18:19:58.684Z,25.80
2022-11-26T18:22:30.060Z,34.20
2022-11-26T18:24:59.354Z,30.30
2022-11-26T18:27:30.799Z,28.38
2022-11-26T18:30:00.240Z,26.20
2022-11-26T18:32:29.399Z,27.23
2022-11-26T18:34:58.706Z,31.45
2022-11-26T18:37:30.076Z,27.98
2022-11-26T18:39:59.323Z,33.10
2022-11-26T18:42:37.252Z,30.13
2022-11-26T18:45:14.786Z,24.10
2022-11-26T18:47:44.120Z,28.92
2022-11-26T18:50:14.134Z,27.30
2022-11-26T18:52:45.532Z,22.42
2022-11-26T18:55:15.935Z,17.55
2022-11-26T18:57:45.035Z,25.88
2022-11-26T19:00:16.645Z,28.08
2022-11-26T19:02:52.694Z,27.27
2022-11-26T19:05:22.269Z,31.35
2022-11-26T19:07:53.467Z,31.20
2022-11-26T19:10:42.818Z,24.15
2022-11-26T19:13:12.033Z,20.23
2022-11-26T19:15:42.854Z,28.55
2022-11-26T19:18:13.647Z,29.23
2022-11-26T19:20:49.807Z,24.60
2022-11-26T19:23:24.318Z,33.50
2022-11-26T19:25:54.085Z,27.88
2022-11-26T19:28:26.710Z,29.67
2022-11-26T19:31:01.107Z,27.40
2022-11-26T19:33:30.547Z,29.25
2022-11-26T19:36:00.174Z,18.98
2022-11-26T19:38:31.731Z,28.77
2022-11-26T19:41:01.787Z,30.40
2022-11-26T19:43:32.822Z,16.60
2022-11-26T19:46:06.804Z,26.52
2022-11-26T19:48:38.375Z,22.05
2022-11-26T19:51:08.450Z,26.58
2022-11-26T19:53:40.101Z,23.42
2022-11-26T19:58:39.413Z,20.42
2022-11-26T20:01:10.556Z,24.90
2022-11-26T20:03:40.051Z,23.25
2022-11-26T20:06:15.526Z,19.00
2022-11-26T20:08:48.553Z,24.92
2022-11-26T20:11:19.416Z,22.55
2022-11-26T20:13:53.074Z,24.17
2022-11-26T20:16:24.566Z,11.55
2022-11-26T20:18:54.526Z,28.85
2022-11-26T20:21:25.902Z,16.92
2022-11-26T20:23:59.352Z,24.00
2022-11-26T20:26:31.403Z,23.88
2022-11-26T20:29:02.760Z,22.10
2022-11-26T20:31:32.638Z,19.00
2022-11-26T20:34:13.894Z,25.45
2022-11-26T20:36:43.339Z,31.58
2022-11-26T20:39:16.243Z,28.20
2022-11-26T20:41:51.421Z,16.02
2022-11-26T20:44:20.624Z,22.65
2022-11-26T20:46:49.764Z,22.98
2022-11-26T20:49:23.985Z,23.50
2022-11-26T20:51:53.341Z,19.95
2022-11-26T20:54:29.514Z,26.15
2022-11-26T20:56:58.713Z,17.20
2022-11-26T20:59:27.994Z,15.52
2022-11-26T21:01:57.579Z,21.33
2022-11-26T21:04:26.872Z,20.80
2022-11-26T21:06:56.179Z,18.75
2022-11-26T21:12:08.598Z,15.82
2022-11-26T21:14:37.841Z,25.23
2022-11-26T21:17:06.985Z,28.52
2022-11-26T21:19:36.617Z,19.25
2022-11-26T21:24:53.070Z,29.45
2022-11-26T21:27:22.490Z,26.15
2022-11-26T21:29:51.711Z,20.52
2022-11-26T21:32:21.228Z,19.73
2022-11-26T21:34:50.399Z,27.25
2022-11-26T21:37:19.691Z,27.48
2022-11-26T21:39:50.053Z,31.60
2022-11-26T21:42:21.273Z,25.83
2022-11-26T21:44:50.468Z,20.05
2022-11-26T21:47:19.625Z,30.35
2022-11-26T21:49:48.922Z,16.27
2022-11-26T21:52:18.518Z,23.60
2022-11-26T21:54:50.736Z,25.40
2022-11-26T21:57:23.038Z,15.95
2022-11-26T21:59:59.936Z,21.20
2022-11-26T22:02:29.164Z,12.90
2022-11-26T22:04:58.397Z,21.65
2022-11-26T22:07:27.736Z,29.98
2022-11-26T22:10:02.236Z,24.52
2022-11-26T22:12:34.805Z,15.43
2022-11-26T22:15:04.264Z,20.98
2022-11-26T22:17:33.464Z,23.48
2022-11-26T22:20:03.182Z,18.75
2022-11-26T22:22:32.998Z,22.60
2022-11-26T22:25:02.408Z,11.38
2022-11-26T22:27:34.230Z,19.92
2022-11-26T22:30:03.659Z,27.02
2022-11-26T22:32:33.546Z,20.42
2022-11-26T22:35:07.701Z,18.48
2022-11-26T22:37:37.369Z,24.52
2022-11-26T22:40:14.211Z,22.95
2022-11-26T22:42:45.578Z,23.35
2022-11-26T22:45:15.041Z,16.63
2022-11-26T22:47:46.488Z,17.50
2022-11-26T22:50:23.516Z,26.45
2022-11-26T22:53:04.015Z,18.70
2022-11-26T22:55:33.308Z,25.52
2022-11-26T22:58:04.412Z,22.27
2022-11-26T23:00:47.778Z,24.52
2022-11-26T23:03:22.947Z,17.63
2022-11-26T23:05:52.880Z,25.92
2022-11-26T23:08:22.576Z,23.77
2022-11-26T23:10:51.812Z,19.52
2022-11-26T23:13:28.033Z,17.25
2022-11-26T23:15:57.490Z,24.10
2022-11-26T23:18:27.041Z,24.83
2022-11-26T23:23:41.321Z,19.33
2022-11-26T23:26:26.873Z,19.60
2022-11-26T23:29:00.061Z,20.73
2022-11-26T23:31:32.051Z,21.52
2022-11-26T23:34:01.832Z,23.38
2022-11-26T23:36:31.939Z,18.77
2022-11-26T23:39:07.789Z,18.88
2022-11-26T23:41:38.255Z,14.82
2022-11-26T23:44:10.155Z,25.85
2022-11-26T23:49:08.342Z,18.90
2022-11-26T23:51:37.928Z,27.48
2022-11-26T23:54:12.205Z,21.45
2022-11-26T23:56:44.077Z,22.13
